Terminal Aerodrome Forecast
Issued by NWS Atlanta, GA

Home | Current Version | Previous Version | Text Only | Print | Product List | Glossary On
Versions: 1 2 3 4 5 6 7 8 9 10 11 12 13 14 15 16 17 18 19 20 21 22 23 24 25 26 27 28 29 30 31 32
964
FTUS42 KFFC 230801 AAA
TAFAHN
TAF AMD
KAHN 230801Z 2308/2406 06004KT P6SM SCT025
      TEMPO 2309/2313 4SM BR BKN008
     FM231500 10005KT P6SM BKN025
     FM231700 10004KT P6SM SCT040
     FM240000 09003KT P6SM FEW250=

USA.gov is the U.S. government's official web portal to all federal, state and local government web resources and services.